Aérodrome :
LOGIN :

S'inscrire | Disclaimer

   EN    FR    IT 

 










Légende :    VFR   VFR Marginal   IFR   IFR Intensif   IFR Très Intensif
Visi : 
Plafond : 
>= 8 km
>= 3000ft
5 à 8 km
1000 à 3000 ft
1500m à 5 km
500 à 1000 ft
800 à 1500m
200 à 500 ft
< 800m
< 200 ft
Symboles :   Orages  Brouillard  Fortes neiges  Fortes précipitations  Vent > 20 kt
SIGMETs :   Divers  Orages  Givrage  Turbulence  Onde Orograph.  Cendres Volcan.






- Altitude de l'aérodrome : 436 ft
- Code IATA : ANG


LFBU - Angoulême Brie Champniers

DERNIER METAR :
  • 130800Z AUTO 02008KT CAVOK 21/09 Q1022 NOSIG

METARs EXPIRÉS :
  • 130730Z AUTO 03008KT CAVOK 20/09 Q1022 NOSIG
  • 130700Z AUTO 03009KT CAVOK 18/09 Q1022 NOSIG
  • 130630Z AUTO 02009KT CAVOK 17/09 Q1022 NOSIG
  • 130600Z AUTO 02008KT CAVOK 16/08 Q1022 NOSIG
  • 130530Z AUTO 02009KT CAVOK 15/08 Q1022 NOSIG

TAF TAF LFBU
Valide du 13 à 06h jusqu'au 14 à 06h UTC


130500Z 1306/1406 02010KT CAVOK



MET'MAP, la Météo Aéronautique d'un coup d'oeil ! - Copyright ORBIFLY Décembre 2007 - Disclaimer

ORBIFLY MET'MAP TEAM :

Programmation & Développement : Alexandra Zaïnal
Sur une idée originale de : Baudouin d'Aumeries
Assistance à la programmation : Marc-Olivier Méhu
Soutien technique & logistique : Manuel Goepfert

Contact : metmap@orbifly.com




SOURCES & CREDITS :

   NOAA